Terminal Aerodrome Forecast
Issued by NWS

Home | Current Version | Previous Version | Text Only | Print | Product List | Glossary On
Versions: 1 2 3 4 5 6 7 8 9 10 11 12 13 14 15 16 17 18 19
000
FTUS43 KOAX 222109 CCA
TAFBFF
TAF COR
KBFF 222109Z 2221/2318 12012G22KT 4SM -RA BR BKN015 OVC025
     FM230100 12010KT P6SM OVC012
     FM230500 12010KT 5SM BR OVC008
     FM231500 09008KT P6SM OVC012=

USA.gov is the U.S. government's official web portal to all federal, state and local government web resources and services.